Storm Lake, IA (50588)

11:57 PM CDT on June 30, 2015 (GMT -0500)
Ricklefs Home | | Change Station
CLOSE
Current Station
Personal Weather Station
Location: Storm Lake, IA
Elevation: 1414 ft
Nearby Weather Stations

Elev 1414 ft 42.65 °N, 95.19 °W | Updated 2 minutes ago

Mostly Cloudy
Mostly Cloudy
65.5 °F
Feels Like 65.5 °F
N
1.0
Wind Variable Wind from East
Gusts 4.0 mph

Today
High -- | Low -- °F
--% Chance of Precip.
Yesterday
High -- | Low -- °F
Precip. -- in
5:46 AM 9:02 PM
Waxing Gibbous, 99% visible
Pressure 29.92 in
Visibility 8.0 miles
Clouds Clear
Dew Point 63 °F
Humidity 92%
Rainfall in
Snow Depth Not available.
UV 0 out of 12
Pollen 4.40 out of 12
Air Quality Not available.
Flu Activity Not available.
METAR KSLB 010435Z AUTO 09007KT 8SM CLR 19/18 A2992 RMK AO2

More Conditions Fewer Conditions

Pressure 29.92 in
Visibility 8.0 miles
Clouds Clear
Dew Point 63 °F
Humidity 92%
Rainfall in
Snow Depth Not available.
UV 0 out of 12
Pollen 4.40 out of 12
Air Quality Not available.
Flu Activity Not available.
METAR KSLB 010435Z AUTO 09007KT 8SM CLR 19/18 A2992 RMK AO2

More Conditions Fewer Conditions

10-Day Weather Forecast

×

Almanac

Astronomy

Jun. 30, 2015 Rise Set
Actual Time
Civil Twilight
Nautical Twilight
Astronomical Twilight
Moon
Length of Visible Light
Length of Day
Tomorrow will be .
, % of the Moon is Illuminated

Today's Extremes

State Highs State Lows

Community

WunderPhotos

Upload Photos

1,834,146 photos uploaded!

WunderBlogs® & News

Nearby

Air Quality

  Air Quality AQ Index Pollutant
Not available.

Snow Depth

Station Depth Elevation

Earthquake Activity

City Distance Mag. Time & Date
Minimum magnitude displayed is 2.5.

Coastal Water Temperatures

Place Temperature

Stations

Nearby Weather Stations

Station Location Temp. Windchill Dew Point Humidity Wind Precip. Elev Updated Type